Time;durP1;ratioP1;P1;durP2;ratioP2;P2;SDS_P1;SDS_P2;PMS_P1;PMS_P2;Temp;Humidity;BMP_temperature;BMP_pressure;BME280_temperature;BME280_humidity;BME280_pressure;Samples;Min_cycle;Max_cycle;Signal;HPM_P1;HPM_P2
2022/08/03 00:01:39;;;;;;;9.57;2.45;;;21.10;75.70;;;;;;5061111;28;20037;-70
2022/08/03 00:04:06;;;;;;;6.97;1.80;;;21.10;75.80;;;;;;5059088;28;20040;-70
2022/08/03 00:06:32;;;;;;;9.00;2.40;;;21.10;75.90;;;;;;5056297;28;20472;-70
2022/08/03 00:08:58;;;;;;;8.23;1.95;;;21.10;75.80;;;;;;5063104;28;20052;-70
2022/08/03 00:11:23;;;;;;;9.40;2.60;;;21.10;75.90;;;;;;5063748;28;20036;-70
2022/08/03 00:13:49;;;;;;;8.18;2.25;;;21.10;76.00;;;;;;5061623;28;20062;-70
2022/08/03 00:16:15;;;;;;;5.65;1.67;;;21.10;76.20;;;;;;5060488;28;20131;-70
2022/08/03 00:18:41;;;;;;;10.60;2.70;;;21.10;76.20;;;;;;5064452;28;20069;-71
2022/08/03 00:21:07;;;;;;;7.35;2.00;;;21.00;76.10;;;;;;5060066;28;20505;-70
2022/08/03 00:23:33;;;;;;;8.75;2.35;;;21.00;76.20;;;;;;5056674;28;20130;-71
2022/08/03 00:25:59;;;;;;;11.35;2.88;;;21.00;76.30;;;;;;5060743;28;20040;-72
2022/08/03 00:28:25;;;;;;;9.55;2.30;;;20.90;76.40;;;;;;5061414;28;20032;-70
2022/08/03 00:30:50;;;;;;;12.25;2.55;;;20.90;76.60;;;;;;5059742;28;20290;-71
2022/08/03 00:33:16;;;;;;;10.30;2.40;;;20.90;76.50;;;;;;5060723;28;20039;-71
2022/08/03 00:35:42;;;;;;;8.95;2.35;;;20.80;76.60;;;;;;5057922;28;20068;-70
2022/08/03 00:38:07;;;;;;;7.13;2.30;;;20.80;76.80;;;;;;5060760;28;20463;-70
2022/08/03 00:40:33;;;;;;;7.85;2.53;;;20.70;76.90;;;;;;5062793;28;20123;-70
2022/08/03 00:43:04;;;;;;;8.65;2.25;;;20.80;77.00;;;;;;5062212;28;20461;-71
2022/08/03 00:45:32;;;;;;;9.50;2.25;;;20.70;77.10;;;;;;5062143;28;20109;-70
2022/08/03 00:47:59;;;;;;;7.22;2.20;;;20.60;77.20;;;;;;5060214;28;20025;-70
2022/08/03 00:50:26;;;;;;;8.88;2.42;;;20.60;77.50;;;;;;5061161;28;20040;-70
2022/08/03 00:52:53;;;;;;;11.82;2.70;;;20.60;77.60;;;;;;5060017;28;20033;-70
2022/08/03 00:55:19;;;;;;;10.38;2.55;;;20.50;78.00;;;;;;5063814;28;20039;-70
2022/08/03 00:57:45;;;;;;;8.63;2.33;;;20.50;77.90;;;;;;5062384;28;20383;-70
2022/08/03 01:00:13;;;;;;;8.40;2.58;;;20.50;77.90;;;;;;5057652;28;20493;-70
2022/08/03 01:02:40;;;;;;;7.07;2.22;;;20.50;78.00;;;;;;5058300;28;20341;-70
2022/08/03 01:05:06;;;;;;;7.35;2.22;;;20.40;78.00;;;;;;5060596;28;20036;-71
2022/08/03 01:07:59;;;;;;;9.52;2.13;;;20.40;78.20;;;;;;5061325;28;20032;-71
2022/08/03 01:10:48;;;;;;;7.55;2.30;;;20.40;78.30;;;;;;5061295;28;20083;-70
2022/08/03 01:13:23;;;;;;;9.05;2.42;;;20.40;78.20;;;;;;5055733;28;20515;-69
2022/08/03 01:16:10;;;;;;;6.45;1.90;;;20.40;78.40;;;;;;5065993;28;20120;-70
2022/08/03 01:19:07;;;;;;;7.38;2.40;;;20.40;78.50;;;;;;5060919;28;20392;-69
2022/08/03 01:21:53;;;;;;;9.32;2.50;;;20.40;78.40;;;;;;5061863;28;20155;-71
2022/08/03 01:24:40;;;;;;;6.88;2.05;;;20.40;78.50;;;;;;5044346;28;20056;-70
2022/08/03 01:27:16;;;;;;;8.57;2.17;;;20.30;78.70;;;;;;5061085;28;20037;-70
2022/08/03 01:29:51;;;;;;;7.70;2.10;;;20.30;78.60;;;;;;5067054;28;20032;-69
2022/08/03 01:32:21;;;;;;;7.57;2.40;;;20.30;78.50;;;;;;5059923;28;20105;-70
2022/08/03 01:34:54;;;;;;;9.63;2.58;;;20.20;78.80;;;;;;5067091;28;20525;-69
2022/08/03 01:37:26;;;;;;;9.43;2.28;;;20.10;78.90;;;;;;5066459;28;20045;-69
2022/08/03 01:39:56;;;;;;;7.60;2.38;;;20.10;79.00;;;;;;5064908;28;20082;-70
2022/08/03 01:42:25;;;;;;;7.03;2.08;;;20.10;79.00;;;;;;5062066;28;20089;-69
2022/08/03 01:44:51;;;;;;;8.50;2.53;;;20.10;79.20;;;;;;5064433;28;20047;-70
2022/08/03 01:47:20;;;;;;;5.95;2.17;;;20.10;79.20;;;;;;5062829;28;20039;-70
2022/08/03 01:49:48;;;;;;;8.18;2.33;;;20.10;79.10;;;;;;5064382;28;20202;-69
2022/08/03 01:52:17;;;;;;;10.00;2.83;;;20.10;79.20;;;;;;5063905;28;20453;-69
2022/08/03 01:54:47;;;;;;;9.60;2.90;;;20.00;79.30;;;;;;5060392;28;20040;-69
2022/08/03 01:57:14;;;;;;;8.40;2.63;;;20.00;79.50;;;;;;5061448;28;20029;-69
2022/08/03 01:59:42;;;;;;;6.43;2.50;;;19.90;79.80;;;;;;5060606;28;20051;-70
2022/08/03 02:02:13;;;;;;;8.35;2.60;;;19.80;80.20;;;;;;5064859;28;20028;-70
2022/08/03 02:04:41;;;;;;;8.70;2.33;;;19.80;80.20;;;;;;5062495;28;20110;-70
2022/08/03 02:07:08;;;;;;;12.88;2.45;;;19.80;80.30;;;;;;5057760;28;20507;-69
2022/08/03 02:09:37;;;;;;;10.40;2.63;;;19.70;80.30;;;;;;5060289;28;20032;-69
2022/08/03 02:12:06;;;;;;;13.98;2.92;;;19.70;80.40;;;;;;5059723;28;20075;-70
2022/08/03 02:14:33;;;;;;;7.50;2.83;;;19.80;80.30;;;;;;5062186;28;20044;-69
2022/08/03 02:17:00;;;;;;;11.70;3.33;;;19.70;80.50;;;;;;5062191;28;20059;-70
2022/08/03 02:19:27;;;;;;;10.40;3.00;;;19.80;80.40;;;;;;5060056;28;20039;-71
2022/08/03 02:21:53;;;;;;;8.07;2.33;;;19.80;80.40;;;;;;5063510;28;20029;-70
2022/08/03 02:24:19;;;;;;;10.13;3.25;;;19.80;80.30;;;;;;5063666;28;20384;-70
2022/08/03 02:26:45;;;;;;;9.30;2.83;;;19.70;80.30;;;;;;5064163;28;20036;-70
2022/08/03 02:29:14;;;;;;;8.60;2.78;;;19.80;80.30;;;;;;5063895;28;20036;-70
2022/08/03 02:31:42;;;;;;;9.85;2.45;;;19.70;80.40;;;;;;5063032;28;20104;-71
2022/08/03 02:34:12;;;;;;;12.38;3.33;;;19.70;80.50;;;;;;5063810;28;20052;-69
2022/08/03 02:36:39;;;;;;;9.07;2.88;;;19.70;80.50;;;;;;5062531;28;20043;-71
2022/08/03 02:39:08;;;;;;;10.68;3.00;;;19.70;80.60;;;;;;5061712;28;20399;-70
2022/08/03 02:41:47;;;;;;;9.35;2.90;;;19.70;80.60;;;;;;5062238;28;20058;-70
2022/08/03 02:44:15;;;;;;;12.95;2.75;;;19.60;80.70;;;;;;5059823;28;20465;-70
2022/08/03 02:46:45;;;;;;;14.18;3.60;;;19.60;80.80;;;;;;5062078;28;20140;-70
2022/08/03 02:49:15;;;;;;;12.45;3.08;;;19.60;80.70;;;;;;5063405;28;20056;-70
2022/08/03 02:51:41;;;;;;;7.25;2.95;;;19.60;80.80;;;;;;5059549;28;20131;-70
2022/08/03 02:54:08;;;;;;;10.85;3.13;;;19.60;80.90;;;;;;5063431;28;20047;-69
2022/08/03 02:56:36;;;;;;;8.88;2.90;;;19.50;81.10;;;;;;5055027;28;20429;-69
2022/08/03 02:59:03;;;;;;;10.55;3.40;;;19.50;81.20;;;;;;5062308;28;20036;-71
2022/08/03 03:01:30;;;;;;;11.73;3.40;;;19.50;81.30;;;;;;5062454;28;20622;-71
2022/08/03 03:03:56;;;;;;;11.60;3.00;;;19.40;81.40;;;;;;5062855;28;20040;-70
2022/08/03 03:06:24;;;;;;;12.27;3.53;;;19.40;81.40;;;;;;5063164;28;20161;-70
2022/08/03 03:08:51;;;;;;;9.70;2.90;;;19.40;81.30;;;;;;5061730;28;20041;-70
2022/08/03 03:11:20;;;;;;;9.38;3.63;;;19.40;81.30;;;;;;5056922;28;20066;-70
2022/08/03 03:13:47;;;;;;;9.80;3.42;;;19.40;81.40;;;;;;5060647;28;20057;-70
2022/08/03 03:16:14;;;;;;;9.35;3.15;;;19.40;81.40;;;;;;5061537;28;20028;-70
2022/08/03 03:18:41;;;;;;;8.02;3.25;;;19.40;81.40;;;;;;5063170;28;20045;-69
2022/08/03 03:21:09;;;;;;;7.80;2.50;;;19.30;81.40;;;;;;5061732;28;20082;-70
2022/08/03 03:23:37;;;;;;;11.73;3.00;;;19.30;81.50;;;;;;5061520;28;20044;-70
2022/08/03 03:26:03;;;;;;;11.30;3.60;;;19.30;81.60;;;;;;5068581;28;20028;-70
2022/08/03 03:28:30;;;;;;;11.20;3.60;;;19.30;81.80;;;;;;5060084;28;20041;-70
2022/08/03 03:30:57;;;;;;;11.93;2.97;;;19.20;81.80;;;;;;5062450;28;20118;-69
2022/08/03 03:33:23;;;;;;;9.27;3.17;;;19.20;81.90;;;;;;5061048;28;20048;-70
2022/08/03 03:35:50;;;;;;;13.13;3.10;;;19.20;81.90;;;;;;5061092;28;20488;-69
2022/08/03 03:38:16;;;;;;;9.00;2.95;;;19.10;82.00;;;;;;5063020;28;20387;-69
2022/08/03 03:40:42;;;;;;;14.23;4.10;;;19.10;82.00;;;;;;5066421;28;20119;-71
2022/08/03 03:43:09;;;;;;;12.57;3.10;;;19.10;82.10;;;;;;5060734;28;20480;-71
2022/08/03 03:45:35;;;;;;;10.68;3.22;;;19.10;82.10;;;;;;5061511;28;20510;-70
2022/08/03 03:48:03;;;;;;;11.00;3.40;;;19.10;82.00;;;;;;5061850;28;20111;-72
2022/08/03 03:50:31;;;;;;;12.90;3.28;;;19.10;82.10;;;;;;5063761;28;20067;-70
2022/08/03 03:52:57;;;;;;;8.65;3.42;;;19.10;82.10;;;;;;5061290;28;20463;-70
2022/08/03 03:55:23;;;;;;;8.45;3.47;;;19.10;82.30;;;;;;5060846;28;20488;-69
2022/08/03 03:57:49;;;;;;;9.90;3.25;;;19.10;82.40;;;;;;5060332;28;20035;-70
2022/08/03 04:00:17;;;;;;;9.75;3.05;;;19.10;82.50;;;;;;5061888;28;20040;-69
2022/08/03 04:02:43;;;;;;;8.50;3.72;;;19.10;82.50;;;;;;5064313;28;20032;-69
2022/08/03 04:10:59;;;;;;;11.65;3.78;;;19.10;82.40;;;;;;5022708;28;20118;-71
2022/08/03 04:13:34;;;;;;;9.63;3.08;;;19.10;82.50;;;;;;5056663;28;20072;-70
2022/08/03 04:16:00;;;;;;;10.30;3.03;;;19.00;82.60;;;;;;5068439;28;20043;-70
2022/08/03 04:18:30;;;;;;;10.85;3.60;;;19.10;82.60;;;;;;5060924;28;20041;-69
2022/08/03 04:20:58;;;;;;;8.77;3.38;;;19.10;82.60;;;;;;5062556;28;20032;-71
2022/08/03 04:23:26;;;;;;;9.25;3.28;;;19.10;82.50;;;;;;5060017;28;20048;-70
2022/08/03 04:25:53;;;;;;;13.45;3.72;;;19.00;82.40;;;;;;5059969;28;20040;-70
2022/08/03 04:28:20;;;;;;;11.40;3.05;;;19.10;82.40;;;;;;5061478;28;20400;-70
2022/08/03 04:30:49;;;;;;;11.00;4.15;;;19.10;82.60;;;;;;5058941;28;20494;-70
2022/08/03 04:33:18;;;;;;;9.70;3.30;;;19.00;82.40;;;;;;5060339;28;20059;-69
2022/08/03 04:35:46;;;;;;;9.05;3.58;;;19.10;82.40;;;;;;5061267;28;20526;-70
2022/08/03 04:38:15;;;;;;;12.15;3.83;;;19.10;82.40;;;;;;5059318;28;20037;-69
2022/08/03 04:40:43;;;;;;;9.70;3.38;;;19.10;82.30;;;;;;5057970;28;20045;-69
2022/08/03 04:43:11;;;;;;;13.60;3.55;;;19.10;82.20;;;;;;5055116;28;20521;-70
2022/08/03 04:45:38;;;;;;;10.60;3.60;;;19.10;82.00;;;;;;5060759;28;20049;-70
2022/08/03 04:48:04;;;;;;;7.38;3.10;;;19.20;81.90;;;;;;5060704;28;20071;-71
2022/08/03 04:50:30;;;;;;;12.82;3.42;;;19.20;81.80;;;;;;5059651;28;20036;-69
2022/08/03 04:52:55;;;;;;;12.18;3.72;;;19.30;81.80;;;;;;5061955;28;20056;-70
2022/08/03 04:55:29;;;;;;;11.90;3.55;;;19.30;81.80;;;;;;5064582;28;20043;-70
2022/08/03 04:57:56;;;;;;;11.32;3.78;;;19.40;81.60;;;;;;5061914;28;21271;-70
2022/08/03 05:00:22;;;;;;;10.80;4.10;;;19.50;81.30;;;;;;5063902;28;20071;-70
2022/08/03 05:02:48;;;;;;;9.10;3.58;;;19.50;81.20;;;;;;5061824;28;20380;-69
2022/08/03 05:05:14;;;;;;;8.60;3.60;;;19.50;81.20;;;;;;5064076;28;20029;-69
2022/08/03 05:07:40;;;;;;;12.38;4.20;;;19.60;81.20;;;;;;5062598;28;20036;-70
2022/08/03 05:10:08;;;;;;;11.30;3.75;;;19.50;81.10;;;;;;5063945;28;20056;-69
2022/08/03 05:12:34;;;;;;;13.13;4.05;;;19.60;81.30;;;;;;5063846;28;20491;-69
2022/08/03 05:15:00;;;;;;;10.40;3.33;;;19.70;80.90;;;;;;5064297;28;20040;-69
2022/08/03 05:17:26;;;;;;;11.52;3.72;;;19.80;80.70;;;;;;5063143;28;20392;-69
2022/08/03 05:19:52;;;;;;;9.35;3.35;;;19.80;80.60;;;;;;5072279;28;20066;-71
2022/08/03 05:22:17;;;;;;;10.80;3.53;;;19.90;80.30;;;;;;5063328;28;20057;-71
2022/08/03 05:24:43;;;;;;;11.63;3.20;;;19.90;80.20;;;;;;5062713;28;20040;-70
2022/08/03 05:27:09;;;;;;;12.00;3.72;;;20.00;80.10;;;;;;5063378;28;20115;-70
2022/08/03 05:29:35;;;;;;;10.95;3.45;;;20.30;80.70;;;;;;5064824;28;20082;-70
2022/08/03 05:32:00;;;;;;;9.27;3.38;;;21.60;77.10;;;;;;5062679;28;20033;-70
2022/08/03 05:34:26;;;;;;;8.57;2.67;;;22.70;72.40;;;;;;5071813;28;20044;-70
2022/08/03 05:36:52;;;;;;;9.55;3.17;;;23.50;69.20;;;;;;5063093;28;20037;-71
2022/08/03 05:39:17;;;;;;;12.40;3.40;;;23.50;67.30;;;;;;5062710;28;20036;-70
2022/08/03 05:41:43;;;;;;;10.02;2.92;;;22.90;69.70;;;;;;5064672;28;20143;-71
2022/08/03 05:44:09;;;;;;;10.55;2.85;;;22.60;71.80;;;;;;5068139;28;20040;-73
2022/08/03 05:46:34;;;;;;;10.00;3.28;;;22.30;72.10;;;;;;5063084;28;20091;-71
2022/08/03 05:49:00;;;;;;;11.93;3.35;;;22.10;73.20;;;;;;5067821;28;20514;-72
2022/08/03 05:51:27;;;;;;;16.58;3.85;;;21.90;74.30;;;;;;5062983;28;20495;-72
2022/08/03 05:53:53;;;;;;;14.98;3.72;;;21.80;74.10;;;;;;5064549;28;20051;-72
2022/08/03 05:56:23;;;;;;;12.23;3.33;;;22.30;73.40;;;;;;5067080;28;20636;-70
2022/08/03 05:58:48;;;;;;;15.75;3.63;;;23.30;69.90;;;;;;5067040;28;20041;-71
2022/08/03 06:01:15;;;;;;;15.75;4.47;;;24.10;66.80;;;;;;5062356;28;20101;-70
2022/08/03 06:03:41;;;;;;;16.25;3.88;;;24.20;65.90;;;;;;5064107;28;20037;-70
2022/08/03 06:06:07;;;;;;;15.10;3.63;;;24.10;65.60;;;;;;5064743;28;20047;-70
2022/08/03 06:08:33;;;;;;;13.20;3.35;;;23.60;67.90;;;;;;5064370;28;20379;-71
2022/08/03 06:10:59;;;;;;;14.25;4.50;;;23.30;68.40;;;;;;5067460;28;20456;-70
2022/08/03 06:13:25;;;;;;;16.23;4.05;;;22.90;69.70;;;;;;5063776;28;20127;-70
2022/08/03 06:15:50;;;;;;;14.85;3.65;;;22.50;71.10;;;;;;5062488;28;20570;-73
2022/08/03 06:18:16;;;;;;;12.27;3.90;;;22.30;72.70;;;;;;5068416;28;20381;-71
2022/08/03 06:20:42;;;;;;;14.57;4.13;;;22.30;72.30;;;;;;5067341;28;20061;-71
2022/08/03 06:23:07;;;;;;;14.98;3.92;;;22.10;73.00;;;;;;5063654;28;20462;-72
2022/08/03 06:25:33;;;;;;;13.18;3.47;;;22.00;73.60;;;;;;5065499;28;20128;-72
2022/08/03 06:27:59;;;;;;;12.23;3.60;;;22.10;73.20;;;;;;5063055;28;20527;-72
2022/08/03 06:30:25;;;;;;;12.20;3.88;;;22.10;73.70;;;;;;5059728;28;20083;-71
2022/08/03 06:32:50;;;;;;;16.13;4.20;;;22.20;73.30;;;;;;5062908;28;20475;-72
2022/08/03 06:35:16;;;;;;;13.10;3.65;;;22.40;72.90;;;;;;5063034;28;20048;-71
2022/08/03 06:37:49;;;;;;;14.50;4.13;;;22.50;72.90;;;;;;5059276;28;20387;-71
2022/08/03 06:40:17;;;;;;;12.43;4.85;;;22.60;72.20;;;;;;5059135;28;20036;-71
2022/08/03 06:42:43;;;;;;;14.10;4.25;;;22.60;72.50;;;;;;5062945;28;20047;-71
2022/08/03 06:45:10;;;;;;;11.40;4.10;;;22.70;71.80;;;;;;5061098;28;20475;-72
2022/08/03 06:47:37;;;;;;;13.70;3.97;;;22.70;71.20;;;;;;5062731;28;20056;-71
2022/08/03 06:50:04;;;;;;;12.70;4.28;;;22.90;71.30;;;;;;5063323;28;20112;-71
2022/08/03 06:52:30;;;;;;;11.20;4.25;;;23.00;70.80;;;;;;5061897;28;20033;-71
2022/08/03 06:54:56;;;;;;;10.93;4.07;;;23.10;70.50;;;;;;5064496;28;20044;-71
2022/08/03 06:57:22;;;;;;;14.02;3.67;;;23.20;69.90;;;;;;5059941;28;20132;-72
2022/08/03 06:59:47;;;;;;;16.40;3.83;;;23.20;70.30;;;;;;5058617;28;20032;-72
2022/08/03 07:02:13;;;;;;;14.25;3.97;;;23.30;69.70;;;;;;5062508;28;20116;-72
2022/08/03 07:04:39;;;;;;;11.20;3.67;;;23.40;70.10;;;;;;5061139;28;20036;-70
2022/08/03 07:07:04;;;;;;;15.43;4.18;;;23.50;69.70;;;;;;5062200;28;20135;-69
2022/08/03 07:09:30;;;;;;;13.05;3.85;;;23.70;68.80;;;;;;5065397;28;20457;-70
2022/08/03 07:11:57;;;;;;;15.80;3.70;;;23.80;68.90;;;;;;5061423;28;20468;-71
2022/08/03 07:14:23;;;;;;;17.45;4.20;;;24.10;68.30;;;;;;5057472;28;20041;-70
2022/08/03 07:16:48;;;;;;;10.98;3.72;;;24.20;67.70;;;;;;5061796;28;20044;-70
2022/08/03 07:19:14;;;;;;;10.93;3.55;;;24.20;67.80;;;;;;5061409;28;20135;-70
2022/08/03 07:21:40;;;;;;;14.25;2.92;;;24.20;68.10;;;;;;5061892;28;20109;-71
2022/08/03 07:24:06;;;;;;;11.57;3.22;;;24.40;67.30;;;;;;5061815;28;20373;-71
2022/08/03 07:26:31;;;;;;;18.33;3.90;;;24.50;67.00;;;;;;5059861;28;20061;-71
2022/08/03 07:28:57;;;;;;;12.13;2.90;;;24.50;66.30;;;;;;5061211;28;20614;-71
2022/08/03 07:31:23;;;;;;;15.77;3.33;;;24.70;66.60;;;;;;5063101;28;20039;-71
2022/08/03 07:33:48;;;;;;;15.73;3.58;;;25.00;64.90;;;;;;5062020;28;20056;-71
2022/08/03 07:36:14;;;;;;;12.13;3.13;;;25.10;64.30;;;;;;5061019;28;20644;-71
2022/08/03 07:38:40;;;;;;;13.57;3.75;;;25.30;63.40;;;;;;5060782;28;20385;-71
2022/08/03 07:41:05;;;;;;;9.60;2.80;;;25.40;63.10;;;;;;5066023;28;20037;-70
2022/08/03 07:43:31;;;;;;;14.30;2.92;;;25.30;63.60;;;;;;5062232;28;20043;-71
2022/08/03 07:45:57;;;;;;;12.60;2.92;;;25.30;63.00;;;;;;5061969;28;20036;-71
2022/08/03 07:48:22;;;;;;;18.33;3.70;;;25.60;62.80;;;;;;5059544;28;20663;-71
2022/08/03 07:50:49;;;;;;;12.75;2.88;;;25.80;61.90;;;;;;5065864;28;20043;-71
2022/08/03 07:53:15;;;;;;;13.13;3.58;;;26.00;61.20;;;;;;5060184;28;20606;-71
2022/08/03 07:55:41;;;;;;;13.35;2.80;;;26.10;61.00;;;;;;5062099;28;20040;-71
2022/08/03 07:58:14;;;;;;;13.35;2.92;;;26.30;60.40;;;;;;5061715;28;20070;-71
2022/08/03 08:00:40;;;;;;;14.93;2.63;;;26.50;60.00;;;;;;5060929;28;20591;-71
2022/08/03 08:03:06;;;;;;;13.68;2.97;;;26.50;59.70;;;;;;5061665;28;20033;-71
2022/08/03 08:05:33;;;;;;;13.30;3.13;;;26.70;58.80;;;;;;5060405;28;20452;-71
2022/08/03 08:07:59;;;;;;;20.10;3.38;;;26.70;58.60;;;;;;5059658;28;20102;-71
2022/08/03 08:10:25;;;;;;;13.85;2.97;;;26.70;57.90;;;;;;5057363;28;20549;-71
2022/08/03 08:12:51;;;;;;;14.82;2.88;;;26.80;57.60;;;;;;5061164;28;20036;-71
2022/08/03 08:15:17;;;;;;;10.75;2.78;;;27.00;57.50;;;;;;5058868;28;20071;-71
2022/08/03 08:17:42;;;;;;;12.57;3.15;;;27.00;57.20;;;;;;5062093;28;20062;-71
2022/08/03 08:20:10;;;;;;;12.55;3.05;;;27.20;56.40;;;;;;5060693;28;20115;-71
2022/08/03 08:22:35;;;;;;;11.38;2.50;;;27.30;56.70;;;;;;5055553;28;20144;-71
2022/08/03 08:25:02;;;;;;;12.90;2.88;;;27.40;55.20;;;;;;5065659;28;20039;-71
2022/08/03 08:27:28;;;;;;;13.52;3.00;;;27.50;54.90;;;;;;5061755;28;20032;-71
2022/08/03 08:29:54;;;;;;;15.30;2.90;;;27.40;55.60;;;;;;5064875;28;20482;-71
2022/08/03 08:32:19;;;;;;;12.98;2.58;;;27.60;55.10;;;;;;5067137;28;20535;-71
2022/08/03 08:34:45;;;;;;;13.65;2.72;;;27.70;54.70;;;;;;5063586;28;20048;-71
2022/08/03 08:37:10;;;;;;;18.75;2.95;;;27.70;54.00;;;;;;5068557;28;20032;-71
2022/08/03 08:39:36;;;;;;;11.73;2.83;;;27.80;53.70;;;;;;5063917;28;20028;-71
2022/08/03 08:42:02;;;;;;;15.73;2.95;;;28.10;53.40;;;;;;5065981;28;20472;-71
2022/08/03 08:44:29;;;;;;;10.45;2.97;;;28.00;53.10;;;;;;5065279;28;20055;-71
2022/08/03 08:46:56;;;;;;;13.05;2.75;;;27.80;54.00;;;;;;5064760;28;20029;-72
2022/08/03 08:49:25;;;;;;;12.73;2.90;;;27.90;54.40;;;;;;5062104;28;20035;-72
2022/08/03 08:51:53;;;;;;;13.60;2.75;;;28.10;53.20;;;;;;5066799;28;20040;-71
2022/08/03 08:54:21;;;;;;;10.82;2.20;;;28.00;52.70;;;;;;5064266;28;20048;-71
2022/08/03 08:56:51;;;;;;;11.43;2.70;;;28.10;53.90;;;;;;5069948;28;20454;-71
2022/08/03 08:59:17;;;;;;;15.02;2.80;;;28.50;52.30;;;;;;5066551;28;20033;-72
2022/08/03 09:01:42;;;;;;;13.70;2.35;;;28.20;53.00;;;;;;5064080;28;20032;-72
2022/08/03 09:04:08;;;;;;;12.15;2.45;;;28.60;52.30;;;;;;5066794;28;20253;-72
2022/08/03 09:06:34;;;;;;;9.23;2.80;;;28.70;51.20;;;;;;5063892;28;20048;-70
2022/08/03 09:09:00;;;;;;;11.48;2.47;;;29.00;50.20;;;;;;5064830;28;20408;-71
2022/08/03 09:11:26;;;;;;;12.32;2.22;;;29.10;50.20;;;;;;5063429;28;20045;-71
2022/08/03 09:13:51;;;;;;;13.73;2.40;;;29.10;49.90;;;;;;5070342;28;20082;-72
2022/08/03 09:16:20;;;;;;;11.82;2.60;;;29.20;49.30;;;;;;5064454;28;20029;-72
2022/08/03 09:18:47;;;;;;;12.07;2.40;;;29.30;49.60;;;;;;5062205;28;20365;-72
2022/08/03 09:21:19;;;;;;;12.35;2.88;;;29.40;49.20;;;;;;5063730;28;20033;-72
2022/08/03 09:23:53;;;;;;;11.82;3.17;;;29.60;48.40;;;;;;5068572;28;20304;-72
2022/08/03 09:26:21;;;;;;;9.88;2.22;;;29.70;47.70;;;;;;5055153;28;20404;-72
2022/08/03 09:28:57;;;;;;;13.55;2.80;;;29.70;48.20;;;;;;5060708;28;20041;-72
2022/08/03 09:31:35;;;;;;;13.90;2.45;;;30.00;48.20;;;;;;5060089;28;20029;-72
2022/08/03 09:34:06;;;;;;;12.60;2.55;;;30.00;47.90;;;;;;5067580;28;20461;-72
2022/08/03 09:36:38;;;;;;;7.82;2.13;;;30.30;47.50;;;;;;5061410;28;20032;-72
2022/08/03 09:39:12;;;;;;;9.85;2.83;;;30.30;47.10;;;;;;5061876;28;20071;-72
2022/08/03 09:41:39;;;;;;;11.65;2.65;;;30.30;46.50;;;;;;5062131;28;20079;-72
2022/08/03 09:44:05;;;;;;;10.45;2.80;;;30.60;45.90;;;;;;5063507;28;20235;-72
2022/08/03 09:46:32;;;;;;;11.15;2.20;;;30.60;46.20;;;;;;5063222;28;20119;-72
2022/08/03 09:49:11;;;;;;;12.45;2.28;;;30.70;45.80;;;;;;5064620;28;20037;-72
2022/08/03 09:51:36;;;;;;;11.02;2.70;;;30.70;46.40;;;;;;5061864;28;20469;-72
2022/08/03 09:54:03;;;;;;;11.32;2.53;;;30.80;46.20;;;;;;5066064;28;20120;-72
2022/08/03 09:56:43;;;;;;;12.55;2.67;;;30.90;46.00;;;;;;5062620;28;20044;-72
2022/08/03 09:59:10;;;;;;;11.52;3.05;;;31.20;45.90;;;;;;5064770;28;20278;-72
2022/08/03 10:01:40;;;;;;;8.77;1.90;;;31.20;45.00;;;;;;5058372;28;20029;-73
2022/08/03 10:04:12;;;;;;;8.73;2.10;;;31.30;45.00;;;;;;5060974;28;20048;-72
2022/08/03 10:06:38;;;;;;;10.88;2.90;;;31.40;45.10;;;;;;5055523;28;20063;-72
2022/08/03 10:09:09;;;;;;;8.55;2.13;;;31.50;45.30;;;;;;5060026;28;20045;-71
2022/08/03 10:11:36;;;;;;;13.88;2.55;;;31.20;45.20;;;;;;5062595;28;20074;-72
2022/08/03 10:14:04;;;;;;;11.35;2.20;;;31.30;45.00;;;;;;5061759;28;20064;-72
2022/08/03 10:16:38;;;;;;;14.20;2.92;;;31.60;44.80;;;;;;5057399;28;20036;-72
2022/08/03 10:19:05;;;;;;;10.13;2.05;;;31.70;44.50;;;;;;5068296;28;20101;-72
2022/08/03 10:21:34;;;;;;;8.48;1.98;;;31.90;43.80;;;;;;5066118;28;20056;-72
2022/08/03 10:24:09;;;;;;;13.40;2.92;;;32.10;43.30;;;;;;5061287;28;21087;-71
2022/08/03 10:26:37;;;;;;;15.88;2.50;;;32.00;43.20;;;;;;5068615;28;20036;-72
2022/08/03 10:29:07;;;;;;;12.50;2.20;;;31.80;43.80;;;;;;5063828;28;20078;-72
2022/08/03 10:31:39;;;;;;;12.48;2.47;;;32.00;43.50;;;;;;5061940;28;20137;-72
2022/08/03 10:34:13;;;;;;;9.05;2.08;;;32.00;43.50;;;;;;5062109;28;20094;-72
2022/08/03 10:36:41;;;;;;;10.85;2.35;;;32.20;43.20;;;;;;5060269;28;20043;-73
2022/08/03 10:39:07;;;;;;;10.13;2.10;;;32.30;42.50;;;;;;5065685;28;20032;-72
2022/08/03 10:41:40;;;;;;;9.75;2.00;;;32.40;42.10;;;;;;5060244;28;20476;-73
2022/08/03 10:44:18;;;;;;;10.23;2.10;;;32.40;42.30;;;;;;5059928;28;20119;-72
2022/08/03 10:46:46;;;;;;;7.18;1.90;;;32.50;42.60;;;;;;5062732;28;20044;-72
2022/08/03 10:49:13;;;;;;;9.77;2.40;;;32.30;42.80;;;;;;5063640;28;20086;-72
2022/08/03 10:51:41;;;;;;;10.63;2.17;;;32.30;42.90;;;;;;5062843;28;20068;-72
2022/08/03 10:54:26;;;;;;;8.73;1.98;;;32.40;42.80;;;;;;5063403;28;20490;-72
2022/08/03 10:59:45;;;;;;;8.80;2.33;;;32.50;42.20;;;;;;5062081;28;20039;-72
2022/08/03 11:02:13;;;;;;;8.88;2.20;;;32.40;43.00;;;;;;5062372;28;20032;-71
2022/08/03 11:04:39;;;;;;;10.55;2.15;;;32.70;41.40;;;;;;5062902;28;20357;-72
2022/08/03 11:07:21;;;;;;;13.43;2.38;;;32.90;41.10;;;;;;5061878;28;20207;-72
2022/08/03 11:09:50;;;;;;;8.45;1.95;;;33.00;41.40;;;;;;5060498;28;20420;-72
2022/08/03 11:12:36;;;;;;;9.75;2.15;;;33.00;41.30;;;;;;5059392;28;20052;-73
2022/08/03 11:15:05;;;;;;;9.38;1.75;;;32.90;41.40;;;;;;5062226;28;20135;-72
2022/08/03 11:17:35;;;;;;;10.40;1.95;;;33.00;40.90;;;;;;5058212;28;20033;-72
2022/08/03 11:20:00;;;;;;;8.75;2.17;;;33.40;39.80;;;;;;5055207;28;20072;-72
2022/08/03 11:22:47;;;;;;;8.85;2.30;;;33.50;41.00;;;;;;5059928;28;20379;-72
2022/08/03 11:25:15;;;;;;;9.20;1.80;;;33.10;40.80;;;;;;5061462;28;20044;-72
2022/08/03 11:27:40;;;;;;;8.70;2.40;;;33.30;40.00;;;;;;5064115;28;20029;-73
2022/08/03 11:30:17;;;;;;;10.20;2.40;;;33.50;40.60;;;;;;5063320;28;20039;-72
2022/08/03 11:32:43;;;;;;;7.47;2.00;;;33.20;40.40;;;;;;5059014;28;20044;-72
2022/08/03 11:35:12;;;;;;;11.73;2.25;;;32.70;41.30;;;;;;5060544;28;20075;-73
2022/08/03 11:37:55;;;;;;;9.43;2.33;;;33.00;41.00;;;;;;5060639;28;20047;-71
2022/08/03 11:40:38;;;;;;;8.85;1.90;;;33.40;41.20;;;;;;5058205;28;20278;-72
2022/08/03 11:43:06;;;;;;;7.45;1.75;;;33.40;40.50;;;;;;5061286;28;20058;-71
2022/08/03 11:45:32;;;;;;;7.60;1.70;;;33.50;39.90;;;;;;5062495;28;20472;-72
2022/08/03 11:48:01;;;;;;;7.30;1.80;;;33.50;40.10;;;;;;5060782;28;20414;-73
2022/08/03 11:50:36;;;;;;;9.63;2.20;;;33.30;40.40;;;;;;5059501;28;20127;-73
2022/08/03 11:53:02;;;;;;;9.13;1.98;;;33.30;39.90;;;;;;5062937;28;20483;-72
2022/08/03 11:55:30;;;;;;;7.25;2.42;;;33.00;41.10;;;;;;5062021;28;20521;-71
2022/08/03 11:57:58;;;;;;;6.80;1.77;;;33.20;40.60;;;;;;5060750;28;20036;-72
2022/08/03 12:00:27;;;;;;;8.25;2.00;;;33.40;39.50;;;;;;5061175;28;20462;-72
2022/08/03 12:02:58;;;;;;;12.13;2.03;;;33.40;40.00;;;;;;5061280;28;20032;-73
2022/08/03 12:05:51;;;;;;;8.68;2.13;;;33.60;39.40;;;;;;5061912;28;20036;-72
2022/08/03 12:08:25;;;;;;;6.82;2.35;;;33.90;40.00;;;;;;5061640;28;20032;-72
2022/08/03 12:10:51;;;;;;;7.15;1.92;;;33.80;39.40;;;;;;5062075;28;20094;-72
2022/08/03 12:13:18;;;;;;;10.30;1.70;;;33.70;40.20;;;;;;5059018;28;20041;-73
2022/08/03 12:15:53;;;;;;;9.25;2.13;;;33.50;40.40;;;;;;5059680;28;20032;-73
2022/08/03 12:18:20;;;;;;;11.77;1.85;;;32.80;41.20;;;;;;5066639;28;20032;-72
2022/08/03 12:20:48;;;;;;;5.72;1.80;;;32.60;42.00;;;;;;5062982;28;20032;-72
2022/08/03 12:23:14;;;;;;;8.93;1.90;;;32.60;41.30;;;;;;5060348;28;20444;-72
2022/08/03 12:25:42;;;;;;;9.18;1.80;;;32.50;41.40;;;;;;5061143;28;20047;-73
2022/08/03 12:28:15;;;;;;;6.38;2.05;;;32.50;41.80;;;;;;5061969;28;20114;-72
2022/08/03 12:30:42;;;;;;;7.78;1.85;;;32.80;41.80;;;;;;5061326;28;20123;-72
2022/08/03 12:33:15;;;;;;;10.43;1.88;;;33.10;41.00;;;;;;5058742;28;20375;-72
2022/08/03 12:35:40;;;;;;;5.82;1.50;;;33.00;40.90;;;;;;5061303;28;20086;-72
2022/08/03 12:38:06;;;;;;;8.48;1.75;;;33.30;40.10;;;;;;5057985;28;20037;-72
2022/08/03 12:40:32;;;;;;;5.53;1.45;;;33.60;40.20;;;;;;5060351;28;20112;-71
2022/08/03 12:42:58;;;;;;;10.13;1.55;;;33.80;39.50;;;;;;5061803;28;20180;-72
2022/08/03 12:45:26;;;;;;;9.68;1.70;;;32.70;41.50;;;;;;5060572;28;20072;-72
2022/08/03 12:48:00;;;;;;;9.68;1.63;;;32.60;41.40;;;;;;5062425;28;20039;-72
2022/08/03 12:50:36;;;;;;;7.00;1.85;;;33.00;41.20;;;;;;5065225;28;20116;-72
2022/08/03 12:53:05;;;;;;;8.98;1.70;;;33.50;40.40;;;;;;5057116;28;20459;-72
2022/08/03 12:55:32;;;;;;;6.05;1.70;;;33.60;40.20;;;;;;5057640;28;20062;-72